Time;durP1;ratioP1;P1;durP2;ratioP2;P2;SDS_P1;SDS_P2;PMS_P1;PMS_P2;Temp;Humidity;BMP_temperature;BMP_pressure;BME280_temperature;BME280_humidity;BME280_pressure;Samples;Min_cycle;Max_cycle;Signal;HPM_P1;HPM_P2
2023/03/31 00:01:18;;;;;;;;;5.00;2.33;;;;;13.56;70.58;100113.09;5041172;28;45666;-67
2023/03/31 00:03:44;;;;;;;;;4.33;2.00;;;;;13.64;69.92;100091.88;5034232;28;45493;-65
2023/03/31 00:06:11;;;;;;;;;5.00;1.67;;;;;13.72;70.22;100093.47;5046148;28;45854;-66
2023/03/31 00:08:39;;;;;;;;;6.33;3.00;;;;;13.68;69.87;100091.78;5036325;28;45687;-66
2023/03/31 00:11:09;;;;;;;;;2.67;2.33;;;;;13.79;69.90;100116.13;5054310;28;46795;-66
2023/03/31 00:13:35;;;;;;;;;3.00;2.00;;;;;13.71;70.38;100123.31;5042926;28;45839;-66
2023/03/31 00:16:09;;;;;;;;;6.00;3.00;;;;;13.71;70.30;100106.66;5055750;28;45449;-66
2023/03/31 00:18:35;;;;;;;;;2.00;2.00;;;;;13.79;70.87;100108.22;5056407;28;45857;-66
2023/03/31 00:21:23;;;;;;;;;3.00;2.33;;;;;13.68;71.71;100054.94;5053796;28;45418;-65
2023/03/31 00:24:00;;;;;;;;;3.67;2.00;;;;;13.52;72.58;100000.94;5034947;28;45442;-67
2023/03/31 00:26:26;;;;;;;;;4.00;3.00;;;;;13.48;72.36;100015.06;5035772;28;45556;-65
2023/03/31 00:28:52;;;;;;;;;2.33;2.00;;;;;13.42;71.67;99988.88;5053697;28;45453;-67
2023/03/31 00:31:19;;;;;;;;;6.00;3.00;;;;;13.32;71.58;99986.44;5053163;28;45407;-66
2023/03/31 00:33:45;;;;;;;;;2.00;2.00;;;;;13.35;71.42;99975.84;5052908;28;45510;-66
2023/03/31 00:36:11;;;;;;;;;4.00;2.00;;;;;13.32;71.17;99956.66;5051734;28;45399;-66
2023/03/31 00:38:36;;;;;;;;;6.33;3.00;;;;;13.25;71.09;99945.38;5034930;28;45878;-66
2023/03/31 00:41:03;;;;;;;;;3.00;2.00;;;;;13.21;71.39;99942.84;5052956;28;45383;-66
2023/03/31 00:43:36;;;;;;;;;3.67;2.00;;;;;13.26;70.79;99967.25;5043431;28;45388;-66
2023/03/31 00:46:42;;;;;;;;;3.00;1.00;;;;;13.28;70.46;99944.47;5039754;28;45574;-67
2023/03/31 00:49:19;;;;;;;;;4.00;2.00;;;;;13.21;69.56;99937.56;5052617;28;45335;-65
2023/03/31 00:51:48;;;;;;;;;4.33;2.00;;;;;13.28;69.90;99933.94;5053131;28;46123;-65
2023/03/31 00:54:14;;;;;;;;;3.00;2.00;;;;;13.27;70.37;99926.94;5053561;28;45433;-65
2023/03/31 00:56:44;;;;;;;;;5.67;2.00;;;;;13.27;70.35;99912.03;5052832;28;45513;-67
2023/03/31 00:59:12;;;;;;;;;2.00;2.00;;;;;13.24;70.06;99913.81;5018734;28;45617;-66
2023/03/31 01:01:41;;;;;;;;;2.00;2.00;;;;;13.34;69.93;99915.41;5032525;28;46096;-66
2023/03/31 01:04:11;;;;;;;;;2.33;2.33;;;;;13.36;69.47;99916.25;5033154;28;45437;-66
2023/03/31 01:06:49;;;;;;;;;4.33;2.00;;;;;13.38;69.07;99906.53;5024191;28;45576;-67
2023/03/31 01:09:15;;;;;;;;;5.00;2.00;;;;;13.40;69.57;99895.97;5025090;28;45609;-67
2023/03/31 01:11:45;;;;;;;;;2.33;1.33;;;;;13.38;68.99;99887.25;5027025;28;47623;-67
2023/03/31 01:14:11;;;;;;;;;2.33;1.67;;;;;13.42;68.97;99879.25;5032288;28;45928;-66
2023/03/31 01:16:38;;;;;;;;;3.00;2.33;;;;;13.45;68.83;99883.59;5029663;28;45644;-66
2023/03/31 01:19:09;;;;;;;;;3.00;2.00;;;;;13.51;68.45;99889.56;5045563;28;45450;-66
2023/03/31 01:21:41;;;;;;;;;2.00;2.00;;;;;13.54;68.75;99886.88;5025403;28;45524;-67
2023/03/31 01:24:18;;;;;;;;;5.67;2.00;;;;;13.54;68.57;99880.75;5037788;28;45468;-66
2023/03/31 01:26:53;;;;;;;;;3.00;2.00;;;;;13.53;68.90;99863.25;5044193;28;45705;-67
2023/03/31 01:29:57;;;;;;;;;6.33;3.00;;;;;13.45;68.94;99879.19;5033022;28;45493;-67
2023/03/31 01:32:31;;;;;;;;;4.00;3.00;;;;;13.45;68.85;99873.91;5044735;28;45462;-66
2023/03/31 01:35:26;;;;;;;;;3.67;1.67;;;;;13.38;69.25;99868.84;5043197;28;45761;-67
2023/03/31 01:38:04;;;;;;;;;4.00;1.00;;;;;13.32;69.87;99868.09;5036476;28;45520;-65
2023/03/31 01:40:49;;;;;;;;;6.00;1.00;;;;;13.22;70.24;99852.56;5036501;28;45373;-67
2023/03/31 01:43:17;;;;;;;;;2.00;1.00;;;;;13.37;70.13;99854.84;5025518;28;47343;-67
2023/03/31 01:46:14;;;;;;;;;4.00;3.00;;;;;13.41;70.29;99853.00;5035900;28;45853;-68
2023/03/31 01:49:02;;;;;;;;;6.00;2.33;;;;;13.33;70.14;99855.81;5017870;28;45537;-66
2023/03/31 01:51:52;;;;;;;;;1.33;1.00;;;;;13.37;70.25;99839.06;5041923;28;45328;-66
2023/03/31 01:54:30;;;;;;;;;2.00;2.00;;;;;13.43;69.78;99828.41;5039693;28;45983;-67
2023/03/31 01:57:00;;;;;;;;;7.33;3.00;;;;;13.46;70.30;99804.66;5040104;28;45388;-66
2023/03/31 01:59:39;;;;;;;;;2.33;2.33;;;;;13.52;70.05;99808.88;5051279;28;45423;-67
2023/03/31 02:02:51;;;;;;;;;2.33;1.00;;;;;13.39;69.99;99794.31;5042003;28;45544;-67
2023/03/31 02:05:21;;;;;;;;;4.67;2.00;;;;;13.32;70.02;99789.19;5051792;28;45447;-67
2023/03/31 02:08:00;;;;;;;;;5.33;3.67;;;;;13.26;70.78;99791.94;5039480;28;45430;-67
2023/03/31 02:10:30;;;;;;;;;3.67;2.00;;;;;13.39;70.60;99792.53;5036077;28;45303;-67
2023/03/31 02:13:00;;;;;;;;;2.33;2.00;;;;;13.35;70.65;99791.75;5036280;28;45467;-67
2023/03/31 02:15:31;;;;;;;;;2.67;2.67;;;;;13.41;70.14;99788.13;5019960;28;46796;-67
2023/03/31 02:18:02;;;;;;;;;7.00;1.00;;;;;13.41;70.48;99788.13;5050327;28;45450;-67
2023/03/31 02:20:32;;;;;;;;;3.00;2.00;;;;;13.47;69.83;99777.44;5040222;28;45530;-67
2023/03/31 02:22:59;;;;;;;;;3.00;2.67;;;;;13.48;70.40;99771.28;5044847;28;45447;-66
2023/03/31 02:25:37;;;;;;;;;3.33;3.00;;;;;13.53;69.49;99764.13;5039433;28;46611;-65
2023/03/31 02:28:11;;;;;;;;;4.00;2.00;;;;;13.48;69.93;99773.91;5040883;28;45860;-66
2023/03/31 02:31:08;;;;;;;;;6.33;2.00;;;;;13.40;70.12;99759.22;5051015;28;45527;-66
2023/03/31 02:33:34;;;;;;;;;2.00;2.00;;;;;13.45;69.98;99760.81;5050835;28;45512;-68
2023/03/31 02:36:00;;;;;;;;;4.67;2.00;;;;;13.45;69.79;99752.06;5038780;28;45573;-67
2023/03/31 02:38:27;;;;;;;;;5.00;3.00;;;;;13.46;69.71;99744.16;5031826;28;45826;-67
2023/03/31 02:40:53;;;;;;;;;4.00;2.00;;;;;13.40;70.04;99732.91;5015945;28;45783;-67
2023/03/31 02:43:19;;;;;;;;;3.00;3.00;;;;;13.41;69.94;99727.63;5035587;28;45465;-67
2023/03/31 02:45:48;;;;;;;;;3.67;2.33;;;;;13.39;69.46;99723.31;5021153;28;46395;-66
2023/03/31 02:48:29;;;;;;;;;5.67;2.67;;;;;13.44;69.74;99706.50;5041321;28;45880;-66
2023/03/31 02:51:07;;;;;;;;;4.00;2.00;;;;;13.52;69.28;99698.38;5022452;28;45413;-66
2023/03/31 02:53:54;;;;;;;;;3.00;3.00;;;;;13.54;69.56;99691.31;5025980;28;45561;-67
2023/03/31 02:56:47;;;;;;;;;5.75;3.00;;;;;13.51;69.71;99679.13;5027356;28;45545;-67
2023/03/31 02:59:22;;;;;;;;;5.00;4.00;;;;;13.48;69.31;99678.34;5024900;28;45398;-67
2023/03/31 03:01:57;;;;;;;;;4.00;4.00;;;;;13.34;70.40;99681.34;5034704;28;45962;-66
2023/03/31 03:04:40;;;;;;;;;5.33;3.00;;;;;13.39;70.01;99673.34;5035307;28;45392;-66
2023/03/31 03:07:40;;;;;;;;;3.33;3.33;;;;;13.41;69.67;99675.03;5016942;28;47785;-67
2023/03/31 03:10:19;;;;;;;;;4.67;4.00;;;;;13.40;69.96;99654.88;5034479;28;45347;-67
2023/03/31 03:12:55;;;;;;;;;5.33;2.33;;;;;13.27;69.60;99649.09;5027628;28;45668;-66
2023/03/31 03:15:47;;;;;;;;;3.00;2.00;;;;;13.31;70.06;99658.63;5025298;28;45561;-67
2023/03/31 03:18:13;;;;;;;;;5.33;4.00;;;;;13.32;69.67;99652.44;5045116;28;45707;-67
2023/03/31 03:20:47;;;;;;;;;5.67;3.00;;;;;13.31;70.36;99658.63;5040038;28;45321;-67
2023/03/31 03:23:13;;;;;;;;;5.00;3.00;;;;;13.39;69.82;99674.19;5045534;28;45522;-68
2023/03/31 03:25:38;;;;;;;;;3.00;3.00;;;;;13.43;69.21;99661.81;5054489;28;45621;-68
2023/03/31 03:28:04;;;;;;;;;3.00;3.00;;;;;13.44;68.76;99660.91;5053609;28;46888;-68
2023/03/31 03:30:30;;;;;;;;;6.67;3.00;;;;;13.40;69.82;99649.59;5054748;28;45316;-68
2023/03/31 03:32:57;;;;;;;;;5.00;2.33;;;;;13.44;69.28;99646.00;5053353;28;45663;-67
2023/03/31 03:35:23;;;;;;;;;2.00;2.00;;;;;13.41;69.49;99647.88;5054567;28;45526;-68
2023/03/31 03:37:49;;;;;;;;;6.33;4.33;;;;;13.46;68.83;99638.94;5056048;28;45595;-66
2023/03/31 03:40:15;;;;;;;;;3.00;3.00;;;;;13.48;68.84;99637.13;5057537;28;45477;-66
2023/03/31 03:42:41;;;;;;;;;8.00;3.33;;;;;13.43;68.64;99630.25;5050310;28;45529;-66
2023/03/31 03:45:07;;;;;;;;;8.00;4.00;;;;;13.33;69.43;99625.22;5042835;28;45470;-67
2023/03/31 03:47:34;;;;;;;;;3.00;3.00;;;;;13.31;69.32;99613.03;5038605;28;45458;-67
2023/03/31 03:50:01;;;;;;;;;7.33;3.00;;;;;13.25;69.34;99618.44;5037517;28;45541;-67
2023/03/31 03:52:27;;;;;;;;;6.67;3.00;;;;;13.19;70.29;99605.44;5035331;28;45527;-68
2023/03/31 03:54:52;;;;;;;;;5.67;4.67;;;;;13.21;70.36;99611.53;5022101;28;45569;-68
2023/03/31 03:57:18;;;;;;;;;4.00;2.00;;;;;13.21;70.13;99609.75;5035960;28;45566;-68
2023/03/31 03:59:44;;;;;;;;;9.00;4.00;;;;;13.34;70.03;99605.94;5034259;28;46045;-67
2023/03/31 04:02:10;;;;;;;;;5.50;4.25;;;;;13.39;69.62;99597.06;5020521;28;45382;-66
2023/03/31 04:04:36;;;;;;;;;4.33;4.00;;;;;13.38;69.73;99603.22;5038038;28;45364;-67
2023/03/31 04:07:02;;;;;;;;;10.33;4.00;;;;;13.42;69.43;99600.47;5034338;28;45763;-67
2023/03/31 04:09:27;;;;;;;;;7.33;5.00;;;;;13.42;69.46;99589.94;5023784;28;45779;-66
2023/03/31 04:11:53;;;;;;;;;5.00;3.33;;;;;13.43;69.50;99580.28;5027545;28;45301;-66
2023/03/31 04:14:19;;;;;;;;;5.33;3.33;;;;;13.46;69.41;99583.69;5042404;28;45632;-67
2023/03/31 04:16:45;;;;;;;;;6.33;4.00;;;;;13.40;69.05;99559.31;5048176;28;46915;-67
2023/03/31 04:19:16;;;;;;;;;5.67;4.00;;;;;13.51;68.26;99575.66;5047629;28;45778;-66
2023/03/31 04:21:43;;;;;;;;;5.33;5.00;;;;;13.58;68.80;99590.38;5030175;28;45392;-67
2023/03/31 04:24:14;;;;;;;;;10.00;3.00;;;;;13.60;68.31;99591.19;5051709;28;45321;-66
2023/03/31 04:26:43;;;;;;;;;6.00;4.33;;;;;13.64;67.73;99587.56;5040211;28;47965;-67
2023/03/31 04:29:21;;;;;;;;;11.00;4.67;;;;;13.69;67.39;99595.31;5060196;28;45459;-67
2023/03/31 04:31:51;;;;;;;;;4.00;4.00;;;;;13.60;67.49;99582.44;5048929;28;45469;-67
2023/03/31 04:34:17;;;;;;;;;7.00;4.00;;;;;13.53;66.74;99573.88;5040955;28;44917;-67
2023/03/31 04:36:51;;;;;;;;;9.67;4.33;;;;;13.54;66.93;99579.06;5040878;28;47271;-68
2023/03/31 04:39:29;;;;;;;;;13.33;5.33;;;;;13.48;66.72;99583.66;5054704;28;45592;-65
2023/03/31 04:41:59;;;;;;;;;6.33;5.00;;;;;13.42;67.78;99570.66;5050885;28;45507;-67
2023/03/31 04:44:26;;;;;;;;;10.00;5.00;;;;;13.54;66.75;99586.94;5033409;28;45398;-67
2023/03/31 04:46:52;;;;;;;;;5.33;4.00;;;;;13.54;66.82;99586.09;5034826;28;47944;-67
2023/03/31 04:49:18;;;;;;;;;5.33;3.67;;;;;13.54;65.84;99581.69;5048403;28;45336;-66
2023/03/31 04:51:44;;;;;;;;;4.67;3.00;;;;;13.49;66.18;99569.59;5018231;28;45325;-67
2023/03/31 04:54:09;;;;;;;;;5.33;4.00;;;;;13.57;65.78;99596.53;5036189;28;45693;-67
2023/03/31 04:56:35;;;;;;;;;9.33;5.00;;;;;13.53;66.36;99593.13;5041715;28;45642;-66
2023/03/31 04:59:02;;;;;;;;;10.33;4.33;;;;;13.52;66.18;99575.59;5038206;28;45385;-69
2023/03/31 05:01:31;;;;;;;;;10.33;5.00;;;;;13.53;65.69;99574.72;5035589;28;45409;-66
2023/03/31 05:03:57;;;;;;;;;8.00;5.00;;;;;13.34;65.88;99541.97;5034502;28;45578;-67
2023/03/31 05:06:26;;;;;;;;;7.67;3.33;;;;;13.53;65.57;99585.25;5035884;28;45510;-67
2023/03/31 05:08:51;;;;;;;;;9.33;3.67;;;;;13.42;64.97;99547.84;5040460;28;45576;-67
2023/03/31 05:11:17;;;;;;;;;8.33;4.67;;;;;13.59;65.08;99584.19;5028433;28;45437;-67
2023/03/31 05:13:42;;;;;;;;;5.00;3.67;;;;;13.51;64.71;99554.63;5024660;28;45415;-67
2023/03/31 05:16:13;;;;;;;;;3.00;3.00;;;;;13.61;63.69;99579.75;5050927;28;45578;-66
2023/03/31 05:18:39;;;;;;;;;9.33;3.67;;;;;13.53;63.46;99560.72;5055844;28;45383;-68
2023/03/31 05:21:13;;;;;;;;;11.33;5.00;;;;;13.64;63.25;99560.38;5060658;28;45430;-68
2023/03/31 05:23:39;;;;;;;;;8.00;6.00;;;;;13.60;62.76;99564.03;5043368;28;45595;-67
2023/03/31 05:26:06;;;;;;;;;9.67;5.33;;;;;13.56;62.79;99558.84;5055820;28;46344;-67
2023/03/31 05:28:32;;;;;;;;;6.00;3.00;;;;;13.50;63.60;99545.88;5055625;28;45867;-66
2023/03/31 05:31:00;;;;;;;;;8.00;3.33;;;;;13.54;63.65;99563.28;5056310;28;45433;-68
2023/03/31 05:33:27;;;;;;;;;4.33;3.33;;;;;13.56;63.36;99563.25;5056650;28;45511;-67
2023/03/31 05:35:52;;;;;;;;;5.33;4.00;;;;;13.53;63.44;99553.69;5059543;28;45474;-67
2023/03/31 05:38:18;;;;;;;;;11.67;4.67;;;;;13.58;62.97;99553.53;5040698;28;45398;-67
2023/03/31 05:40:44;;;;;;;;;4.67;3.33;;;;;13.62;61.97;99549.94;5037599;28;45419;-67
2023/03/31 05:43:09;;;;;;;;;6.00;2.33;;;;;13.57;61.70;99536.00;5054692;28;45545;-68
2023/03/31 05:45:35;;;;;;;;;15.00;5.00;;;;;13.61;61.66;99544.69;5053754;28;46725;-66
2023/03/31 05:48:01;;;;;;;;;5.33;4.00;;;;;13.55;61.96;99551.00;5055880;28;45486;-66
2023/03/31 05:50:26;;;;;;;;;4.00;3.33;;;;;13.57;62.37;99542.16;5055889;28;45435;-67
2023/03/31 05:52:52;;;;;;;;;14.00;6.00;;;;;13.48;62.17;99544.22;5055690;28;45548;-67
2023/03/31 05:55:17;;;;;;;;;6.00;3.00;;;;;13.52;61.79;99548.44;5053989;28;47628;-68
2023/03/31 05:57:43;;;;;;;;;7.00;4.00;;;;;13.55;61.86;99548.38;5055014;28;45812;-68
2023/03/31 06:00:10;;;;;;;;;7.00;4.00;;;;;13.55;61.93;99556.28;5037127;28;45963;-68
2023/03/31 06:02:36;;;;;;;;;4.33;4.00;;;;;13.52;62.38;99559.81;5053969;28;45667;-67
2023/03/31 06:05:02;;;;;;;;;11.33;5.00;;;;;13.48;62.66;99558.22;5044935;28;46671;-68
2023/03/31 06:07:28;;;;;;;;;5.67;4.67;;;;;13.46;62.44;99552.13;5045691;28;45608;-68
2023/03/31 06:09:54;;;;;;;;;10.67;4.33;;;;;13.44;62.17;99545.19;5030825;28;45465;-68
2023/03/31 06:12:20;;;;;;;;;9.67;5.33;;;;;13.55;62.26;99564.16;5036659;28;45774;-68
2023/03/31 06:14:45;;;;;;;;;10.00;4.00;;;;;13.54;61.71;99558.00;5055132;28;45573;-67
2023/03/31 06:17:11;;;;;;;;;10.00;3.00;;;;;13.53;62.19;99558.94;5032049;28;45376;-66
2023/03/31 06:19:37;;;;;;;;;9.33;4.33;;;;;13.54;61.97;99552.75;5024387;28;45533;-67
2023/03/31 06:22:02;;;;;;;;;9.33;4.00;;;;;13.40;61.99;99512.84;5055000;28;45516;-68
2023/03/31 06:24:28;;;;;;;;;10.00;4.67;;;;;13.54;61.48;99536.97;5054866;28;45434;-67
2023/03/31 06:26:54;;;;;;;;;9.33;4.00;;;;;13.56;61.53;99563.25;5054871;28;45411;-68
2023/03/31 06:29:20;;;;;;;;;6.67;3.00;;;;;13.59;61.29;99552.63;5055582;28;45529;-67
2023/03/31 06:31:45;;;;;;;;;7.33;5.00;;;;;13.59;61.05;99544.72;5053640;28;45855;-69
2023/03/31 06:34:11;;;;;;;;;12.00;3.00;;;;;13.70;60.70;99554.94;5054663;28;45546;-68
2023/03/31 06:36:36;;;;;;;;;10.00;4.00;;;;;13.76;61.26;99542.47;5054565;28;45450;-67
2023/03/31 06:39:02;;;;;;;;;12.00;4.00;;;;;13.70;60.70;99532.13;5055679;28;45567;-67
2023/03/31 06:41:27;;;;;;;;;11.00;4.00;;;;;13.70;60.80;99536.53;5038944;28;45480;-69
2023/03/31 06:43:53;;;;;;;;;7.00;3.00;;;;;13.69;60.85;99543.56;5054536;28;45981;-67
2023/03/31 06:46:18;;;;;;;;;13.67;4.33;;;;;13.71;60.22;99547.00;5054250;28;45531;-68
2023/03/31 06:48:44;;;;;;;;;5.33;3.00;;;;;13.85;60.55;99559.75;5057942;28;45509;-67
2023/03/31 06:51:10;;;;;;;;;5.67;2.67;;;;;13.89;60.10;99556.13;5031489;28;45468;-68
2023/03/31 06:53:36;;;;;;;;;4.33;3.33;;;;;13.90;60.04;99554.34;5025489;28;48133;-67
2023/03/31 06:56:02;;;;;;;;;6.00;2.67;;;;;13.83;60.08;99563.34;5053429;28;45428;-68
2023/03/31 06:58:28;;;;;;;;;4.33;3.33;;;;;13.90;59.98;99556.97;5036823;28;45492;-68
2023/03/31 07:00:53;;;;;;;;;9.67;4.00;;;;;13.93;60.46;99565.66;5031492;28;45601;-69
2023/03/31 07:03:23;;;;;;;;;7.00;4.00;;;;;13.94;59.88;99556.84;5033020;28;47235;-68
2023/03/31 07:05:51;;;;;;;;;7.67;3.33;;;;;14.03;59.43;99546.94;5054927;28;45586;-67
2023/03/31 07:08:17;;;;;;;;;8.00;4.00;;;;;14.00;59.45;99542.66;5053887;28;45455;-68
2023/03/31 07:10:47;;;;;;;;;7.67;3.00;;;;;14.13;59.41;99548.38;5036403;28;45769;-68
2023/03/31 07:13:16;;;;;;;;;6.67;3.00;;;;;14.13;58.90;99529.94;5035806;28;47447;-69
2023/03/31 07:15:43;;;;;;;;;6.67;3.67;;;;;14.31;58.38;99560.97;5057752;28;45426;-68
2023/03/31 07:18:08;;;;;;;;;3.67;3.67;;;;;14.26;58.05;99536.56;5022697;28;45610;-67
2023/03/31 07:20:34;;;;;;;;;9.00;2.67;;;;;14.17;58.60;99531.56;5035118;28;45595;-67
2023/03/31 07:23:03;;;;;;;;;4.67;4.00;;;;;14.24;58.39;99563.81;5035664;28;45427;-68
2023/03/31 07:25:29;;;;;;;;;7.67;4.00;;;;;14.17;58.43;99529.78;5035942;28;45573;-67
2023/03/31 07:27:55;;;;;;;;;5.67;3.67;;;;;14.14;58.30;99536.91;5047050;28;45414;-68
2023/03/31 07:30:26;;;;;;;;;5.33;2.00;;;;;14.04;58.41;99540.75;5036704;28;45522;-68
2023/03/31 07:32:53;;;;;;;;;4.33;2.00;;;;;14.16;58.63;99561.44;5033735;28;46187;-67
2023/03/31 07:35:20;;;;;;;;;8.00;3.00;;;;;13.98;58.33;99518.13;5034331;28;45311;-68
2023/03/31 07:37:47;;;;;;;;;11.00;1.67;;;;;14.31;58.07;99555.69;5018476;28;45415;-69
2023/03/31 07:40:16;;;;;;;;;3.00;2.00;;;;;14.47;58.06;99552.53;5034153;28;45425;-68
2023/03/31 07:42:43;;;;;;;;;6.67;2.67;;;;;14.42;57.73;99529.00;5033080;28;46133;-69
2023/03/31 07:45:11;;;;;;;;;6.67;2.00;;;;;14.56;57.35;99557.56;5026504;28;45498;-68
2023/03/31 07:47:38;;;;;;;;;3.00;1.00;;;;;14.58;57.33;99561.84;5036107;28;45471;-67
2023/03/31 07:50:04;;;;;;;;;3.00;1.67;;;;;14.70;57.27;99555.31;5032212;28;45587;-68
2023/03/31 07:52:30;;;;;;;;;4.00;1.67;;;;;14.72;56.67;99566.66;5028898;28;47772;-67
2023/03/31 07:54:55;;;;;;;;;3.00;2.33;;;;;14.74;56.94;99564.00;5020242;28;45426;-67
2023/03/31 07:57:21;;;;;;;;;8.33;2.33;;;;;14.72;57.42;99547.38;5032018;28;45488;-69
2023/03/31 07:59:46;;;;;;;;;3.00;2.00;;;;;14.57;57.09;99564.56;5039012;28;45434;-68
2023/03/31 08:02:14;;;;;;;;;4.00;2.33;;;;;14.42;58.06;99564.09;5039472;28;45410;-68
2023/03/31 08:04:43;;;;;;;;;1.67;1.33;;;;;14.53;58.30;99558.47;5033012;28;45508;-69
2023/03/31 08:07:10;;;;;;;;;6.67;3.00;;;;;14.55;57.90;99550.56;5035363;28;45407;-68
2023/03/31 08:09:36;;;;;;;;;4.00;2.33;;;;;14.69;58.32;99548.34;5036663;28;45435;-68
2023/03/31 08:12:02;;;;;;;;;7.00;1.67;;;;;14.74;58.22;99548.19;5036100;28;45861;-67
2023/03/31 08:14:28;;;;;;;;;5.00;2.67;;;;;14.62;58.21;99549.47;5037772;28;45383;-68
2023/03/31 08:16:54;;;;;;;;;5.33;2.00;;;;;14.68;58.07;99574.72;5022760;28;45514;-68
2023/03/31 08:19:21;;;;;;;;;2.33;1.00;;;;;14.65;59.05;99578.34;5046787;28;45541;-68
2023/03/31 08:21:47;;;;;;;;;3.00;2.33;;;;;14.54;58.66;99562.88;5055076;28;45491;-68
2023/03/31 08:24:12;;;;;;;;;3.67;2.00;;;;;14.41;58.98;99554.47;5053202;28;46625;-68
2023/03/31 08:26:40;;;;;;;;;5.67;3.00;;;;;14.56;58.98;99565.47;5035578;28;45605;-68
2023/03/31 08:29:05;;;;;;;;;6.67;2.00;;;;;14.60;59.23;99557.41;5057714;28;45409;-68
2023/03/31 08:31:31;;;;;;;;;9.00;3.00;;;;;14.63;58.56;99557.28;5057579;28;46126;-69
2023/03/31 08:33:56;;;;;;;;;3.33;2.67;;;;;14.83;58.50;99559.28;5034611;28;45646;-68
2023/03/31 08:36:22;;;;;;;;;5.00;2.00;;;;;14.93;58.28;99559.81;5032090;28;45561;-68
2023/03/31 08:38:48;;;;;;;;;4.33;1.00;;;;;15.01;57.60;99559.53;5031013;28;45527;-68
2023/03/31 08:41:30;;;;;;;;;7.33;3.00;;;;;14.96;57.74;99549.16;5042893;28;46108;-67
2023/03/31 08:43:59;;;;;;;;;8.00;2.00;;;;;15.06;57.44;99536.50;5033210;28;45842;-67
2023/03/31 08:46:28;;;;;;;;;6.00;2.00;;;;;15.19;57.16;99543.06;5024210;28;45447;-69
2023/03/31 08:48:56;;;;;;;;;7.00;2.33;;;;;15.29;56.67;99540.97;5034429;28;45536;-67
2023/03/31 08:51:31;;;;;;;;;6.67;3.00;;;;;15.32;56.53;99547.91;5040772;28;45771;-67
2023/03/31 08:54:04;;;;;;;;;4.00;2.00;;;;;15.36;55.33;99547.72;5023870;28;45505;-68
2023/03/31 08:56:37;;;;;;;;;11.00;4.00;;;;;15.33;55.19;99528.50;5036419;28;45507;-68
2023/03/31 08:59:05;;;;;;;;;7.00;4.33;;;;;15.37;55.00;99525.69;5033199;28;45597;-67
2023/03/31 09:01:40;;;;;;;;;5.00;2.00;;;;;15.53;54.65;99549.75;5033403;28;46240;-66
2023/03/31 09:04:24;;;;;;;;;5.00;2.00;;;;;15.61;54.21;99562.66;5033754;28;45405;-68
2023/03/31 09:06:53;;;;;;;;;2.67;1.00;;;;;15.60;53.79;99543.31;5032056;28;45730;-69
2023/03/31 09:09:31;;;;;;;;;5.00;2.33;;;;;15.65;53.43;99554.56;5035583;28;45367;-68
2023/03/31 09:12:07;;;;;;;;;5.00;3.00;;;;;15.59;53.46;99554.81;5049106;28;45548;-68
2023/03/31 09:14:48;;;;;;;;;3.67;1.00;;;;;15.65;53.32;99570.38;5035777;28;45620;-69
2023/03/31 09:17:26;;;;;;;;;5.00;2.00;;;;;15.58;52.90;99528.47;5036262;28;45402;-68
2023/03/31 09:19:57;;;;;;;;;7.00;2.67;;;;;15.47;53.36;99547.31;5043712;28;45619;-67
2023/03/31 09:22:36;;;;;;;;;2.67;1.67;;;;;15.39;53.44;99537.06;5045971;28;46337;-68
2023/03/31 09:25:10;;;;;;;;;4.00;2.00;;;;;15.42;53.67;99557.19;5046450;28;45556;-68
2023/03/31 09:27:41;;;;;;;;;4.00;2.33;;;;;15.32;53.61;99548.75;5041210;28;45530;-66
2023/03/31 09:30:20;;;;;;;;;2.00;2.00;;;;;15.29;54.28;99543.59;5043455;28;45663;-67
2023/03/31 09:32:58;;;;;;;;;3.67;2.00;;;;;15.23;54.18;99543.81;5044675;28;45497;-68
2023/03/31 09:35:25;;;;;;;;;6.00;3.33;;;;;15.20;54.73;99544.78;5044851;28;45506;-68
2023/03/31 09:37:52;;;;;;;;;5.67;2.00;;;;;15.25;55.66;99541.97;5031105;28;45524;-68
2023/03/31 09:40:27;;;;;;;;;4.00;2.00;;;;;15.43;56.55;99533.41;5038881;28;45847;-69
2023/03/31 09:43:00;;;;;;;;;10.67;2.33;;;;;15.61;54.42;99546.81;5046159;28;47013;-69
2023/03/31 09:45:29;;;;;;;;;0.00;0.00;;;;;15.68;53.88;99519.25;5045548;28;45483;-67
2023/03/31 09:48:11;;;;;;;;;2.00;1.00;;;;;15.92;53.89;99538.59;5049483;28;45431;-68
2023/03/31 09:50:46;;;;;;;;;4.00;2.00;;;;;16.09;52.53;99533.53;5046817;28;45892;-67
2023/03/31 09:53:24;;;;;;;;;6.00;3.00;;;;;16.16;51.42;99538.56;5050395;28;45684;-68
2023/03/31 09:55:55;;;;;;;;;7.00;3.00;;;;;16.20;50.80;99535.72;5047155;28;45582;-68
2023/03/31 09:58:23;;;;;;;;;2.00;2.00;;;;;16.21;50.93;99547.19;5030520;28;45495;-69
2023/03/31 10:01:00;;;;;;;;;2.00;2.00;;;;;16.22;50.50;99511.91;5048973;28;45478;-68
2023/03/31 10:03:28;;;;;;;;;3.00;1.33;;;;;16.43;50.34;99528.66;5049432;28;45687;-68
2023/03/31 10:05:57;;;;;;;;;7.00;2.00;;;;;16.62;49.95;99534.03;5031458;28;45851;-67
2023/03/31 10:08:25;;;;;;;;;7.00;3.00;;;;;16.70;49.57;99521.34;5042634;28;45312;-68
2023/03/31 10:11:10;;;;;;;;;6.33;4.00;;;;;16.60;48.56;99525.31;5033528;28;45648;-68
2023/03/31 10:14:01;;;;;;;;;4.00;1.00;;;;;16.58;49.56;99512.16;5046180;28;46215;-67
2023/03/31 10:16:33;;;;;;;;;3.67;1.00;;;;;16.39;49.58;99520.00;5049946;28;45603;-68
2023/03/31 10:19:21;;;;;;;;;2.33;1.33;;;;;16.37;51.06;99499.84;5052756;28;45447;-66
2023/03/31 10:21:55;;;;;;;;;5.00;2.00;;;;;16.32;49.86;99505.31;5052129;28;45483;-67
2023/03/31 10:24:21;;;;;;;;;2.67;1.00;;;;;16.14;50.08;99514.00;5029844;28;47053;-68
2023/03/31 10:26:51;;;;;;;;;3.67;1.67;;;;;16.10;50.51;99521.19;5051972;28;45541;-68
2023/03/31 10:29:26;;;;;;;;;2.33;1.67;;;;;16.13;50.29;99528.13;5052236;28;45575;-68
2023/03/31 10:31:51;;;;;;;;;8.33;2.67;;;;;16.22;49.87;99533.03;5052410;28;46369;-67
2023/03/31 10:34:21;;;;;;;;;4.00;2.00;;;;;16.46;49.06;99525.88;5055978;28;45886;-67
2023/03/31 10:36:50;;;;;;;;;5.00;2.33;;;;;16.71;48.60;99523.09;5051547;28;45886;-68
2023/03/31 10:39:17;;;;;;;;;3.33;2.00;;;;;16.82;48.06;99518.22;5052318;28;45507;-67
2023/03/31 10:41:51;;;;;;;;;2.00;1.67;;;;;16.82;47.92;99535.88;5051947;28;45696;-68
2023/03/31 10:44:38;;;;;;;;;2.00;1.00;;;;;16.82;47.24;99509.41;5055412;28;46431;-68
2023/03/31 10:47:23;;;;;;;;;2.33;2.00;;;;;16.86;47.01;99511.88;5055575;28;45579;-68
2023/03/31 10:49:55;;;;;;;;;2.00;1.00;;;;;16.86;47.44;99506.59;5047435;28;45815;-67
2023/03/31 10:52:23;;;;;;;;;3.00;1.00;;;;;16.96;47.14;99522.91;5050219;28;45553;-67
2023/03/31 10:54:58;;;;;;;;;4.00;1.00;;;;;17.02;48.04;99493.56;5032641;28;45632;-67
2023/03/31 10:57:42;;;;;;;;;3.00;0.00;;;;;17.03;47.38;99523.50;5043103;28;45388;-68
2023/03/31 11:00:17;;;;;;;;;2.33;1.33;;;;;16.93;47.03;99508.03;5041177;28;45499;-67
2023/03/31 11:02:52;;;;;;;;;3.67;2.00;;;;;16.90;48.89;99523.19;5041461;28;45565;-67
2023/03/31 11:05:45;;;;;;;;;2.00;2.00;;;;;17.02;47.58;99516.50;5024314;28;45473;-68
2023/03/31 11:08:17;;;;;;;;;4.33;1.00;;;;;17.01;47.37;99528.00;5045303;28;45739;-68
2023/03/31 11:11:07;;;;;;;;;1.00;1.00;;;;;16.95;47.61;99513.25;5042584;28;45557;-67
2023/03/31 11:13:43;;;;;;;;;2.00;0.00;;;;;17.02;47.75;99529.72;5034285;28;45527;-68
2023/03/31 11:16:32;;;;;;;;;6.00;1.00;;;;;17.09;47.70;99517.94;5041009;28;46642;-68
2023/03/31 11:18:58;;;;;;;;;3.00;2.00;;;;;16.97;47.62;99531.72;5053553;28;46306;-68
2023/03/31 11:22:12;;;;;;;;;1.33;1.00;;;;;16.90;48.10;99520.53;5055571;28;45457;-66
2023/03/31 11:24:41;;;;;;;;;1.00;1.00;;;;;17.19;47.44;99527.19;5025644;28;45388;-67
2023/03/31 11:27:15;;;;;;;;;1.67;1.00;;;;;17.34;46.93;99526.50;5051478;28;46730;-67
2023/03/31 11:29:59;;;;;;;;;1.33;1.33;;;;;17.69;46.26;99516.06;5050666;28;45439;-68
2023/03/31 11:32:36;;;;;;;;;3.00;1.00;;;;;17.88;46.07;99526.69;5037684;28;45530;-68
2023/03/31 11:35:15;;;;;;;;;2.67;2.00;;;;;17.72;45.65;99520.38;5048377;28;45521;-69
2023/03/31 11:38:16;;;;;;;;;5.33;0.00;;;;;17.32;47.30;99511.63;5037037;28;47004;-67
2023/03/31 11:40:50;;;;;;;;;1.00;1.00;;;;;17.11;46.34;99508.16;5029912;28;45925;-67
2023/03/31 11:43:29;;;;;;;;;1.67;1.00;;;;;16.97;46.62;99492.06;5051399;28;45564;-68
2023/03/31 11:46:08;;;;;;;;;2.33;2.00;;;;;17.15;46.19;99485.91;5067037;27;45693;-68
2023/03/31 11:48:46;;;;;;;;;2.00;0.67;;;;;17.32;45.84;99491.31;5033054;28;46534;-68
2023/03/31 11:51:36;;;;;;;;;2.33;2.00;;;;;17.53;45.70;99492.09;5044353;28;45597;-69